sensor_id;sensor_type;location;lat;lon;timestamp;P1;durP1;ratioP1;P2;durP2;ratioP2
17441;SDS011;8838;50.144;8.176;2023-04-24T00:00:16;2.35;;;1.60;;
17441;SDS011;8838;50.144;8.176;2023-04-24T00:02:43;3.28;;;1.90;;
17441;SDS011;8838;50.144;8.176;2023-04-24T00:05:12;6.50;;;1.90;;
17441;SDS011;8838;50.144;8.176;2023-04-24T00:07:40;2.50;;;2.10;;
17441;SDS011;8838;50.144;8.176;2023-04-24T00:10:07;2.03;;;1.80;;
17441;SDS011;8838;50.144;8.176;2023-04-24T00:12:34;5.82;;;1.80;;
17441;SDS011;8838;50.144;8.176;2023-04-24T00:15:01;3.40;;;1.70;;
17441;SDS011;8838;50.144;8.176;2023-04-24T00:17:30;3.40;;;1.90;;
17441;SDS011;8838;50.144;8.176;2023-04-24T00:19:57;6.43;;;2.30;;
17441;SDS011;8838;50.144;8.176;2023-04-24T00:22:24;5.20;;;1.93;;
17441;SDS011;8838;50.144;8.176;2023-04-24T00:24:51;3.30;;;2.20;;
17441;SDS011;8838;50.144;8.176;2023-04-24T00:27:18;5.07;;;2.20;;
17441;SDS011;8838;50.144;8.176;2023-04-24T00:29:44;6.72;;;2.10;;
17441;SDS011;8838;50.144;8.176;2023-04-24T00:32:12;4.20;;;1.80;;
17441;SDS011;8838;50.144;8.176;2023-04-24T00:34:40;3.20;;;1.67;;
17441;SDS011;8838;50.144;8.176;2023-04-24T00:37:07;4.65;;;2.10;;
17441;SDS011;8838;50.144;8.176;2023-04-24T00:39:34;4.40;;;2.50;;
17441;SDS011;8838;50.144;8.176;2023-04-24T00:42:01;4.55;;;2.22;;
17441;SDS011;8838;50.144;8.176;2023-04-24T00:44:28;4.20;;;2.57;;
17441;SDS011;8838;50.144;8.176;2023-04-24T00:46:55;4.40;;;2.20;;
17441;SDS011;8838;50.144;8.176;2023-04-24T00:49:22;3.20;;;2.00;;
17441;SDS011;8838;50.144;8.176;2023-04-24T00:51:51;5.17;;;2.13;;
17441;SDS011;8838;50.144;8.176;2023-04-24T00:54:19;3.35;;;2.20;;
17441;SDS011;8838;50.144;8.176;2023-04-24T00:56:45;3.03;;;2.28;;
17441;SDS011;8838;50.144;8.176;2023-04-24T00:59:13;3.25;;;1.92;;
17441;SDS011;8838;50.144;8.176;2023-04-24T01:01:42;5.28;;;2.20;;
17441;SDS011;8838;50.144;8.176;2023-04-24T01:04:10;4.90;;;2.20;;
17441;SDS011;8838;50.144;8.176;2023-04-24T01:06:38;3.50;;;2.15;;
17441;SDS011;8838;50.144;8.176;2023-04-24T01:09:07;3.87;;;2.17;;
17441;SDS011;8838;50.144;8.176;2023-04-24T01:11:35;3.30;;;2.40;;
17441;SDS011;8838;50.144;8.176;2023-04-24T01:14:03;6.75;;;2.22;;
17441;SDS011;8838;50.144;8.176;2023-04-24T01:16:30;1.98;;;1.83;;
17441;SDS011;8838;50.144;8.176;2023-04-24T01:18:57;2.17;;;1.83;;
17441;SDS011;8838;50.144;8.176;2023-04-24T01:21:24;3.67;;;1.90;;
17441;SDS011;8838;50.144;8.176;2023-04-24T01:23:55;3.40;;;2.10;;
17441;SDS011;8838;50.144;8.176;2023-04-24T01:26:22;2.97;;;1.80;;
17441;SDS011;8838;50.144;8.176;2023-04-24T01:28:50;4.18;;;1.83;;
17441;SDS011;8838;50.144;8.176;2023-04-24T01:31:18;4.20;;;1.83;;
17441;SDS011;8838;50.144;8.176;2023-04-24T01:33:45;4.93;;;2.08;;
17441;SDS011;8838;50.144;8.176;2023-04-24T01:36:13;2.25;;;1.80;;
17441;SDS011;8838;50.144;8.176;2023-04-24T01:38:40;3.77;;;1.70;;
17441;SDS011;8838;50.144;8.176;2023-04-24T01:41:08;2.70;;;1.50;;
17441;SDS011;8838;50.144;8.176;2023-04-24T01:43:35;3.65;;;1.65;;
17441;SDS011;8838;50.144;8.176;2023-04-24T01:46:02;2.20;;;1.40;;
17441;SDS011;8838;50.144;8.176;2023-04-24T01:48:29;2.40;;;1.60;;
17441;SDS011;8838;50.144;8.176;2023-04-24T01:50:57;3.20;;;1.33;;
17441;SDS011;8838;50.144;8.176;2023-04-24T01:53:24;1.35;;;1.20;;
17441;SDS011;8838;50.144;8.176;2023-04-24T01:55:51;0.90;;;0.90;;
17441;SDS011;8838;50.144;8.176;2023-04-24T01:58:19;1.10;;;0.93;;
17441;SDS011;8838;50.144;8.176;2023-04-24T02:00:47;1.63;;;1.20;;
17441;SDS011;8838;50.144;8.176;2023-04-24T02:03:14;1.65;;;1.10;;
17441;SDS011;8838;50.144;8.176;2023-04-24T02:05:43;2.17;;;1.20;;
17441;SDS011;8838;50.144;8.176;2023-04-24T02:08:10;3.03;;;1.10;;
17441;SDS011;8838;50.144;8.176;2023-04-24T02:10:37;1.63;;;1.23;;
17441;SDS011;8838;50.144;8.176;2023-04-24T02:13:03;2.92;;;0.93;;
17441;SDS011;8838;50.144;8.176;2023-04-24T02:15:32;1.52;;;1.17;;
17441;SDS011;8838;50.144;8.176;2023-04-24T02:17:59;1.48;;;1.10;;
17441;SDS011;8838;50.144;8.176;2023-04-24T02:20:26;1.30;;;1.20;;
17441;SDS011;8838;50.144;8.176;2023-04-24T02:22:52;2.03;;;1.10;;
17441;SDS011;8838;50.144;8.176;2023-04-24T02:25:20;3.07;;;1.20;;
17441;SDS011;8838;50.144;8.176;2023-04-24T02:27:47;1.55;;;1.10;;
17441;SDS011;8838;50.144;8.176;2023-04-24T02:30:14;2.10;;;1.10;;
17441;SDS011;8838;50.144;8.176;2023-04-24T02:32:42;3.20;;;1.40;;
17441;SDS011;8838;50.144;8.176;2023-04-24T02:35:09;1.50;;;1.20;;
17441;SDS011;8838;50.144;8.176;2023-04-24T02:37:36;2.17;;;1.43;;
17441;SDS011;8838;50.144;8.176;2023-04-24T02:40:03;2.40;;;1.43;;
17441;SDS011;8838;50.144;8.176;2023-04-24T02:42:31;1.63;;;1.33;;
17441;SDS011;8838;50.144;8.176;2023-04-24T02:44:58;1.97;;;1.30;;
17441;SDS011;8838;50.144;8.176;2023-04-24T02:47:24;1.85;;;1.25;;
17441;SDS011;8838;50.144;8.176;2023-04-24T02:49:53;1.48;;;1.35;;
17441;SDS011;8838;50.144;8.176;2023-04-24T02:52:19;2.23;;;1.37;;
17441;SDS011;8838;50.144;8.176;2023-04-24T02:54:47;1.57;;;1.20;;
17441;SDS011;8838;50.144;8.176;2023-04-24T02:57:14;2.60;;;1.50;;
17441;SDS011;8838;50.144;8.176;2023-04-24T02:59:41;1.80;;;1.40;;
17441;SDS011;8838;50.144;8.176;2023-04-24T03:02:07;1.90;;;1.37;;
17441;SDS011;8838;50.144;8.176;2023-04-24T03:04:34;1.50;;;1.40;;
17441;SDS011;8838;50.144;8.176;2023-04-24T03:07:02;1.70;;;1.60;;
17441;SDS011;8838;50.144;8.176;2023-04-24T03:09:29;2.00;;;1.30;;
17441;SDS011;8838;50.144;8.176;2023-04-24T03:11:56;1.83;;;1.67;;
17441;SDS011;8838;50.144;8.176;2023-04-24T03:14:23;1.67;;;1.50;;
17441;SDS011;8838;50.144;8.176;2023-04-24T03:16:50;2.53;;;1.60;;
17441;SDS011;8838;50.144;8.176;2023-04-24T03:19:16;1.80;;;1.50;;
17441;SDS011;8838;50.144;8.176;2023-04-24T03:21:43;1.97;;;1.60;;
17441;SDS011;8838;50.144;8.176;2023-04-24T03:24:11;4.70;;;1.50;;
17441;SDS011;8838;50.144;8.176;2023-04-24T03:26:38;2.83;;;1.80;;
17441;SDS011;8838;50.144;8.176;2023-04-24T03:29:05;3.30;;;1.60;;
17441;SDS011;8838;50.144;8.176;2023-04-24T03:31:32;1.70;;;1.57;;
17441;SDS011;8838;50.144;8.176;2023-04-24T03:33:59;2.37;;;1.47;;
17441;SDS011;8838;50.144;8.176;2023-04-24T03:36:26;2.63;;;1.47;;
17441;SDS011;8838;50.144;8.176;2023-04-24T03:38:52;1.57;;;1.40;;
17441;SDS011;8838;50.144;8.176;2023-04-24T03:41:20;2.27;;;1.40;;
17441;SDS011;8838;50.144;8.176;2023-04-24T03:43:48;5.63;;;1.70;;
17441;SDS011;8838;50.144;8.176;2023-04-24T03:46:14;2.23;;;1.83;;
17441;SDS011;8838;50.144;8.176;2023-04-24T03:48:41;1.60;;;1.50;;
17441;SDS011;8838;50.144;8.176;2023-04-24T03:51:08;3.13;;;1.90;;
17441;SDS011;8838;50.144;8.176;2023-04-24T03:53:35;2.67;;;2.00;;
17441;SDS011;8838;50.144;8.176;2023-04-24T03:56:02;3.40;;;1.93;;
17441;SDS011;8838;50.144;8.176;2023-04-24T03:58:30;4.03;;;1.90;;
17441;SDS011;8838;50.144;8.176;2023-04-24T04:00:57;3.23;;;2.20;;
17441;SDS011;8838;50.144;8.176;2023-04-24T04:03:23;4.07;;;2.10;;
17441;SDS011;8838;50.144;8.176;2023-04-24T04:05:51;5.00;;;2.20;;
17441;SDS011;8838;50.144;8.176;2023-04-24T04:08:19;2.50;;;1.80;;
17441;SDS011;8838;50.144;8.176;2023-04-24T04:10:46;2.33;;;1.70;;
17441;SDS011;8838;50.144;8.176;2023-04-24T04:13:14;3.83;;;1.80;;
17441;SDS011;8838;50.144;8.176;2023-04-24T04:15:43;3.50;;;1.97;;
17441;SDS011;8838;50.144;8.176;2023-04-24T04:18:10;2.33;;;2.10;;
17441;SDS011;8838;50.144;8.176;2023-04-24T04:20:36;4.70;;;1.90;;
17441;SDS011;8838;50.144;8.176;2023-04-24T04:23:03;3.23;;;1.77;;
17441;SDS011;8838;50.144;8.176;2023-04-24T04:25:30;2.27;;;1.60;;
17441;SDS011;8838;50.144;8.176;2023-04-24T04:27:57;2.60;;;1.87;;
17441;SDS011;8838;50.144;8.176;2023-04-24T04:30:24;2.30;;;1.80;;
17441;SDS011;8838;50.144;8.176;2023-04-24T04:32:53;2.73;;;1.80;;
17441;SDS011;8838;50.144;8.176;2023-04-24T04:35:20;3.27;;;1.70;;
17441;SDS011;8838;50.144;8.176;2023-04-24T04:37:47;2.97;;;2.20;;
17441;SDS011;8838;50.144;8.176;2023-04-24T04:40:13;2.50;;;1.93;;
17441;SDS011;8838;50.144;8.176;2023-04-24T04:42:40;2.47;;;2.10;;
17441;SDS011;8838;50.144;8.176;2023-04-24T04:45:07;3.67;;;2.60;;
17441;SDS011;8838;50.144;8.176;2023-04-24T04:47:36;3.83;;;2.40;;
17441;SDS011;8838;50.144;8.176;2023-04-24T04:50:06;2.10;;;1.90;;
17441;SDS011;8838;50.144;8.176;2023-04-24T04:52:33;2.43;;;1.77;;
17441;SDS011;8838;50.144;8.176;2023-04-24T04:55:00;2.57;;;1.97;;
17441;SDS011;8838;50.144;8.176;2023-04-24T04:57:27;3.40;;;2.20;;
17441;SDS011;8838;50.144;8.176;2023-04-24T04:59:55;4.27;;;2.17;;
17441;SDS011;8838;50.144;8.176;2023-04-24T05:02:21;3.07;;;2.20;;
17441;SDS011;8838;50.144;8.176;2023-04-24T05:04:48;2.53;;;2.00;;
17441;SDS011;8838;50.144;8.176;2023-04-24T05:07:16;2.97;;;1.60;;
17441;SDS011;8838;50.144;8.176;2023-04-24T05:09:43;1.70;;;1.50;;
17441;SDS011;8838;50.144;8.176;2023-04-24T05:12:10;3.37;;;2.23;;
17441;SDS011;8838;50.144;8.176;2023-04-24T05:14:37;2.27;;;2.03;;
17441;SDS011;8838;50.144;8.176;2023-04-24T05:17:04;4.13;;;2.47;;
17441;SDS011;8838;50.144;8.176;2023-04-24T05:19:31;7.43;;;2.90;;
17441;SDS011;8838;50.144;8.176;2023-04-24T05:22:00;4.00;;;2.90;;
17441;SDS011;8838;50.144;8.176;2023-04-24T05:24:30;4.10;;;2.80;;
17441;SDS011;8838;50.144;8.176;2023-04-24T05:26:57;3.73;;;2.50;;
17441;SDS011;8838;50.144;8.176;2023-04-24T05:29:25;4.20;;;3.00;;
17441;SDS011;8838;50.144;8.176;2023-04-24T05:31:52;5.23;;;3.20;;
17441;SDS011;8838;50.144;8.176;2023-04-24T05:34:19;6.23;;;3.43;;
17441;SDS011;8838;50.144;8.176;2023-04-24T05:36:45;4.23;;;3.43;;
17441;SDS011;8838;50.144;8.176;2023-04-24T05:39:12;5.57;;;3.60;;
17441;SDS011;8838;50.144;8.176;2023-04-24T05:41:41;5.30;;;4.13;;
17441;SDS011;8838;50.144;8.176;2023-04-24T05:44:08;7.40;;;4.33;;
17441;SDS011;8838;50.144;8.176;2023-04-24T05:46:35;6.07;;;3.63;;
17441;SDS011;8838;50.144;8.176;2023-04-24T05:49:02;6.53;;;4.63;;
17441;SDS011;8838;50.144;8.176;2023-04-24T05:51:29;5.57;;;4.10;;
17441;SDS011;8838;50.144;8.176;2023-04-24T05:53:56;6.20;;;4.73;;
17441;SDS011;8838;50.144;8.176;2023-04-24T05:56:23;10.43;;;5.03;;
17441;SDS011;8838;50.144;8.176;2023-04-24T05:58:51;7.23;;;5.03;;
17441;SDS011;8838;50.144;8.176;2023-04-24T06:01:18;8.10;;;5.00;;
17441;SDS011;8838;50.144;8.176;2023-04-24T06:03:45;7.87;;;5.70;;
17441;SDS011;8838;50.144;8.176;2023-04-24T06:06:12;7.73;;;5.00;;
17441;SDS011;8838;50.144;8.176;2023-04-24T06:08:40;6.77;;;5.00;;
17441;SDS011;8838;50.144;8.176;2023-04-24T06:11:09;7.60;;;4.97;;
17441;SDS011;8838;50.144;8.176;2023-04-24T06:13:35;6.17;;;4.27;;
17441;SDS011;8838;50.144;8.176;2023-04-24T06:16:04;10.20;;;5.07;;
17441;SDS011;8838;50.144;8.176;2023-04-24T06:18:31;5.33;;;4.50;;
17441;SDS011;8838;50.144;8.176;2023-04-24T06:20:58;9.07;;;4.90;;
17441;SDS011;8838;50.144;8.176;2023-04-24T06:23:25;5.83;;;4.37;;
17441;SDS011;8838;50.144;8.176;2023-04-24T06:25:51;7.90;;;4.33;;
17441;SDS011;8838;50.144;8.176;2023-04-24T06:28:18;7.40;;;4.23;;
17441;SDS011;8838;50.144;8.176;2023-04-24T06:30:45;4.73;;;3.93;;
17441;SDS011;8838;50.144;8.176;2023-04-24T06:33:13;6.13;;;4.07;;
17441;SDS011;8838;50.144;8.176;2023-04-24T06:35:40;4.97;;;3.87;;
17441;SDS011;8838;50.144;8.176;2023-04-24T06:38:07;5.27;;;3.70;;
17441;SDS011;8838;50.144;8.176;2023-04-24T06:40:34;5.03;;;3.70;;
17441;SDS011;8838;50.144;8.176;2023-04-24T06:43:00;7.07;;;3.90;;
17441;SDS011;8838;50.144;8.176;2023-04-24T06:45:27;3.73;;;3.33;;
17441;SDS011;8838;50.144;8.176;2023-04-24T06:47:54;9.13;;;5.45;;
17441;SDS011;8838;50.144;8.176;2023-04-24T06:50:23;5.95;;;3.72;;
17441;SDS011;8838;50.144;8.176;2023-04-24T06:52:50;3.88;;;3.17;;
17441;SDS011;8838;50.144;8.176;2023-04-24T06:55:17;3.58;;;2.75;;
17441;SDS011;8838;50.144;8.176;2023-04-24T06:57:44;5.77;;;3.23;;
17441;SDS011;8838;50.144;8.176;2023-04-24T07:00:11;4.53;;;2.90;;
17441;SDS011;8838;50.144;8.176;2023-04-24T07:02:39;3.85;;;2.80;;
17441;SDS011;8838;50.144;8.176;2023-04-24T07:05:06;7.97;;;4.72;;
17441;SDS011;8838;50.144;8.176;2023-04-24T07:07:34;6.63;;;3.60;;
17441;SDS011;8838;50.144;8.176;2023-04-24T07:10:03;5.47;;;3.10;;
17441;SDS011;8838;50.144;8.176;2023-04-24T07:12:30;4.53;;;2.90;;
17441;SDS011;8838;50.144;8.176;2023-04-24T07:14:57;3.75;;;2.60;;
17441;SDS011;8838;50.144;8.176;2023-04-24T07:17:25;2.85;;;2.55;;
17441;SDS011;8838;50.144;8.176;2023-04-24T07:19:52;3.90;;;2.53;;
17441;SDS011;8838;50.144;8.176;2023-04-24T07:22:18;2.78;;;2.10;;
17441;SDS011;8838;50.144;8.176;2023-04-24T07:24:47;2.70;;;2.20;;
17441;SDS011;8838;50.144;8.176;2023-04-24T07:27:14;3.83;;;2.97;;
17441;SDS011;8838;50.144;8.176;2023-04-24T07:29:41;2.83;;;2.20;;
17441;SDS011;8838;50.144;8.176;2023-04-24T07:32:08;3.28;;;2.42;;
17441;SDS011;8838;50.144;8.176;2023-04-24T07:34:35;6.03;;;2.50;;
17441;SDS011;8838;50.144;8.176;2023-04-24T07:37:02;2.60;;;2.30;;
17441;SDS011;8838;50.144;8.176;2023-04-24T07:39:29;4.45;;;3.00;;
17441;SDS011;8838;50.144;8.176;2023-04-24T07:41:58;3.50;;;2.65;;
17441;SDS011;8838;50.144;8.176;2023-04-24T07:44:26;3.38;;;2.50;;
17441;SDS011;8838;50.144;8.176;2023-04-24T07:46:53;3.03;;;2.72;;
17441;SDS011;8838;50.144;8.176;2023-04-24T07:49:20;4.60;;;2.80;;
17441;SDS011;8838;50.144;8.176;2023-04-24T07:51:47;3.22;;;2.63;;
17441;SDS011;8838;50.144;8.176;2023-04-24T07:54:15;2.63;;;2.42;;
17441;SDS011;8838;50.144;8.176;2023-04-24T07:56:42;3.30;;;2.10;;
17441;SDS011;8838;50.144;8.176;2023-04-24T07:59:11;3.03;;;2.47;;
17441;SDS011;8838;50.144;8.176;2023-04-24T08:01:38;3.35;;;2.53;;
17441;SDS011;8838;50.144;8.176;2023-04-24T08:04:05;4.45;;;2.30;;
17441;SDS011;8838;50.144;8.176;2023-04-24T08:06:32;3.63;;;2.60;;
17441;SDS011;8838;50.144;8.176;2023-04-24T08:09:02;3.47;;;2.60;;
17441;SDS011;8838;50.144;8.176;2023-04-24T08:11:32;3.88;;;2.80;;
17441;SDS011;8838;50.144;8.176;2023-04-24T08:13:59;4.65;;;2.50;;
17441;SDS011;8838;50.144;8.176;2023-04-24T08:16:28;3.53;;;2.60;;
17441;SDS011;8838;50.144;8.176;2023-04-24T08:18:54;3.20;;;2.50;;
17441;SDS011;8838;50.144;8.176;2023-04-24T08:21:21;3.17;;;2.78;;
17441;SDS011;8838;50.144;8.176;2023-04-24T08:23:50;5.32;;;2.65;;
17441;SDS011;8838;50.144;8.176;2023-04-24T08:26:17;4.57;;;2.53;;
17441;SDS011;8838;50.144;8.176;2023-04-24T08:28:44;4.15;;;2.25;;
17441;SDS011;8838;50.144;8.176;2023-04-24T08:31:11;4.25;;;2.40;;
17441;SDS011;8838;50.144;8.176;2023-04-24T08:33:39;3.60;;;2.50;;
17441;SDS011;8838;50.144;8.176;2023-04-24T08:36:06;3.45;;;2.22;;
17441;SDS011;8838;50.144;8.176;2023-04-24T08:38:33;2.40;;;2.15;;
17441;SDS011;8838;50.144;8.176;2023-04-24T08:41:00;2.50;;;1.92;;
17441;SDS011;8838;50.144;8.176;2023-04-24T08:43:29;3.42;;;2.38;;
17441;SDS011;8838;50.144;8.176;2023-04-24T08:45:57;2.47;;;2.20;;
17441;SDS011;8838;50.144;8.176;2023-04-24T08:48:24;4.70;;;2.40;;
17441;SDS011;8838;50.144;8.176;2023-04-24T08:50:53;3.65;;;2.00;;
17441;SDS011;8838;50.144;8.176;2023-04-24T08:53:21;3.05;;;2.03;;
17441;SDS011;8838;50.144;8.176;2023-04-24T08:55:50;3.05;;;2.20;;
17441;SDS011;8838;50.144;8.176;2023-04-24T08:58:20;3.38;;;1.70;;
17441;SDS011;8838;50.144;8.176;2023-04-24T09:00:47;2.27;;;2.07;;
17441;SDS011;8838;50.144;8.176;2023-04-24T09:03:15;2.90;;;1.93;;
17441;SDS011;8838;50.144;8.176;2023-04-24T09:05:43;2.03;;;1.83;;
17441;SDS011;8838;50.144;8.176;2023-04-24T09:08:13;2.83;;;1.92;;
17441;SDS011;8838;50.144;8.176;2023-04-24T09:10:42;1.85;;;1.70;;
17441;SDS011;8838;50.144;8.176;2023-04-24T09:13:09;2.73;;;1.80;;
17441;SDS011;8838;50.144;8.176;2023-04-24T09:15:37;2.08;;;1.88;;
17441;SDS011;8838;50.144;8.176;2023-04-24T09:18:04;1.77;;;1.67;;
17441;SDS011;8838;50.144;8.176;2023-04-24T09:20:31;1.83;;;1.73;;
17441;SDS011;8838;50.144;8.176;2023-04-24T09:23:01;3.13;;;1.77;;
17441;SDS011;8838;50.144;8.176;2023-04-24T09:25:31;1.87;;;1.70;;
17441;SDS011;8838;50.144;8.176;2023-04-24T09:28:01;2.20;;;1.70;;
17441;SDS011;8838;50.144;8.176;2023-04-24T09:30:28;2.03;;;1.83;;
17441;SDS011;8838;50.144;8.176;2023-04-24T09:35:40;2.17;;;1.70;;
17441;SDS011;8838;50.144;8.176;2023-04-24T09:38:08;2.20;;;1.83;;
17441;SDS011;8838;50.144;8.176;2023-04-24T09:40:37;2.00;;;1.80;;
17441;SDS011;8838;50.144;8.176;2023-04-24T09:43:04;2.03;;;1.40;;
17441;SDS011;8838;50.144;8.176;2023-04-24T09:45:36;1.93;;;1.50;;
17441;SDS011;8838;50.144;8.176;2023-04-24T09:48:04;2.58;;;1.50;;
17441;SDS011;8838;50.144;8.176;2023-04-24T09:50:32;3.72;;;1.88;;
17441;SDS011;8838;50.144;8.176;2023-04-24T09:53:01;1.73;;;1.52;;
17441;SDS011;8838;50.144;8.176;2023-04-24T09:55:29;2.78;;;1.42;;
17441;SDS011;8838;50.144;8.176;2023-04-24T09:57:58;2.10;;;1.30;;
17441;SDS011;8838;50.144;8.176;2023-04-24T10:00:27;1.80;;;1.70;;
17441;SDS011;8838;50.144;8.176;2023-04-24T10:02:56;1.87;;;1.70;;
17441;SDS011;8838;50.144;8.176;2023-04-24T10:05:28;2.03;;;1.60;;
17441;SDS011;8838;50.144;8.176;2023-04-24T10:07:56;2.50;;;1.63;;
17441;SDS011;8838;50.144;8.176;2023-04-24T10:10:24;1.70;;;1.60;;
17441;SDS011;8838;50.144;8.176;2023-04-24T10:12:51;1.80;;;1.70;;
17441;SDS011;8838;50.144;8.176;2023-04-24T10:15:21;2.50;;;1.67;;
17441;SDS011;8838;50.144;8.176;2023-04-24T10:17:48;2.87;;;2.00;;
17441;SDS011;8838;50.144;8.176;2023-04-24T10:20:18;1.80;;;1.70;;
17441;SDS011;8838;50.144;8.176;2023-04-24T10:22:49;2.03;;;1.70;;
17441;SDS011;8838;50.144;8.176;2023-04-24T10:25:18;1.80;;;1.60;;
17441;SDS011;8838;50.144;8.176;2023-04-24T10:27:46;2.00;;;1.73;;
17441;SDS011;8838;50.144;8.176;2023-04-24T10:30:14;1.63;;;1.53;;
17441;SDS011;8838;50.144;8.176;2023-04-24T10:32:43;2.13;;;1.57;;
17441;SDS011;8838;50.144;8.176;2023-04-24T10:35:11;2.30;;;1.50;;
17441;SDS011;8838;50.144;8.176;2023-04-24T10:37:40;1.95;;;1.80;;
17441;SDS011;8838;50.144;8.176;2023-04-24T10:40:10;2.40;;;2.00;;
17441;SDS011;8838;50.144;8.176;2023-04-24T10:42:42;3.47;;;1.80;;
17441;SDS011;8838;50.144;8.176;2023-04-24T10:45:16;2.20;;;1.77;;
17441;SDS011;8838;50.144;8.176;2023-04-24T10:47:51;2.80;;;2.15;;
17441;SDS011;8838;50.144;8.176;2023-04-24T10:50:19;9.75;;;7.15;;
17441;SDS011;8838;50.144;8.176;2023-04-24T10:52:46;1.98;;;1.73;;
17441;SDS011;8838;50.144;8.176;2023-04-24T10:55:16;2.38;;;1.83;;
17441;SDS011;8838;50.144;8.176;2023-04-24T10:58:03;1.70;;;1.60;;
17441;SDS011;8838;50.144;8.176;2023-04-24T11:00:31;2.78;;;1.98;;
17441;SDS011;8838;50.144;8.176;2023-04-24T11:02:59;2.35;;;2.08;;
17441;SDS011;8838;50.144;8.176;2023-04-24T11:08:22;4.35;;;1.95;;
17441;SDS011;8838;50.144;8.176;2023-04-24T11:10:54;2.92;;;2.10;;
17441;SDS011;8838;50.144;8.176;2023-04-24T11:13:24;3.70;;;2.45;;
17441;SDS011;8838;50.144;8.176;2023-04-24T11:18:51;2.97;;;2.10;;
17441;SDS011;8838;50.144;8.176;2023-04-24T11:21:19;2.35;;;2.15;;
17441;SDS011;8838;50.144;8.176;2023-04-24T11:23:48;3.70;;;2.00;;
17441;SDS011;8838;50.144;8.176;2023-04-24T11:26:17;2.17;;;1.83;;
17441;SDS011;8838;50.144;8.176;2023-04-24T11:28:48;2.72;;;2.20;;
17441;SDS011;8838;50.144;8.176;2023-04-24T11:31:34;2.45;;;2.13;;
17441;SDS011;8838;50.144;8.176;2023-04-24T11:34:07;4.38;;;2.60;;
17441;SDS011;8838;50.144;8.176;2023-04-24T11:36:36;4.28;;;2.42;;
17441;SDS011;8838;50.144;8.176;2023-04-24T11:39:03;4.28;;;2.38;;
17441;SDS011;8838;50.144;8.176;2023-04-24T11:41:30;3.25;;;2.10;;
17441;SDS011;8838;50.144;8.176;2023-04-24T11:43:57;2.20;;;1.95;;
17441;SDS011;8838;50.144;8.176;2023-04-24T11:46:27;4.03;;;1.80;;
17441;SDS011;8838;50.144;8.176;2023-04-24T11:48:56;12.25;;;7.95;;
17441;SDS011;8838;50.144;8.176;2023-04-24T11:51:25;2.80;;;2.30;;
17441;SDS011;8838;50.144;8.176;2023-04-24T11:53:53;3.67;;;2.60;;
17441;SDS011;8838;50.144;8.176;2023-04-24T11:56:21;4.05;;;3.10;;
17441;SDS011;8838;50.144;8.176;2023-04-24T11:58:48;4.30;;;2.53;;
17441;SDS011;8838;50.144;8.176;2023-04-24T12:01:15;3.30;;;2.40;;
17441;SDS011;8838;50.144;8.176;2023-04-24T12:03:43;8.88;;;2.90;;
17441;SDS011;8838;50.144;8.176;2023-04-24T12:06:14;4.78;;;2.63;;
17441;SDS011;8838;50.144;8.176;2023-04-24T12:08:42;7.88;;;3.13;;
17441;SDS011;8838;50.144;8.176;2023-04-24T12:11:14;5.38;;;3.28;;
17441;SDS011;8838;50.144;8.176;2023-04-24T12:13:41;4.78;;;2.85;;
17441;SDS011;8838;50.144;8.176;2023-04-24T12:16:10;5.70;;;3.13;;
17441;SDS011;8838;50.144;8.176;2023-04-24T12:18:41;5.00;;;3.47;;
17441;SDS011;8838;50.144;8.176;2023-04-24T12:21:15;4.78;;;3.40;;
17441;SDS011;8838;50.144;8.176;2023-04-24T12:23:44;8.80;;;3.60;;
17441;SDS011;8838;50.144;8.176;2023-04-24T12:26:11;5.22;;;3.58;;
17441;SDS011;8838;50.144;8.176;2023-04-24T12:28:38;4.75;;;3.40;;
17441;SDS011;8838;50.144;8.176;2023-04-24T12:31:06;4.68;;;3.65;;
17441;SDS011;8838;50.144;8.176;2023-04-24T12:33:34;5.45;;;3.72;;
17441;SDS011;8838;50.144;8.176;2023-04-24T12:36:01;5.03;;;3.00;;
17441;SDS011;8838;50.144;8.176;2023-04-24T12:38:28;7.20;;;3.50;;
17441;SDS011;8838;50.144;8.176;2023-04-24T12:41:03;4.60;;;2.95;;
17441;SDS011;8838;50.144;8.176;2023-04-24T12:43:31;5.75;;;3.00;;
17441;SDS011;8838;50.144;8.176;2023-04-24T12:45:58;5.40;;;3.25;;
17441;SDS011;8838;50.144;8.176;2023-04-24T12:48:25;7.13;;;3.15;;
17441;SDS011;8838;50.144;8.176;2023-04-24T12:50:53;6.93;;;2.90;;
17441;SDS011;8838;50.144;8.176;2023-04-24T12:53:20;7.13;;;3.40;;
17441;SDS011;8838;50.144;8.176;2023-04-24T12:55:47;6.38;;;3.40;;
17441;SDS011;8838;50.144;8.176;2023-04-24T12:58:19;4.55;;;3.60;;
17441;SDS011;8838;50.144;8.176;2023-04-24T13:00:46;5.70;;;3.58;;
17441;SDS011;8838;50.144;8.176;2023-04-24T13:03:13;5.15;;;3.70;;
17441;SDS011;8838;50.144;8.176;2023-04-24T13:05:40;5.25;;;3.40;;
17441;SDS011;8838;50.144;8.176;2023-04-24T13:08:08;5.40;;;3.35;;
17441;SDS011;8838;50.144;8.176;2023-04-24T13:10:34;5.78;;;3.30;;
17441;SDS011;8838;50.144;8.176;2023-04-24T13:13:02;6.07;;;3.83;;
17441;SDS011;8838;50.144;8.176;2023-04-24T13:15:30;4.75;;;3.20;;
17441;SDS011;8838;50.144;8.176;2023-04-24T13:17:57;4.95;;;3.42;;
17441;SDS011;8838;50.144;8.176;2023-04-24T13:20:24;5.65;;;3.15;;
17441;SDS011;8838;50.144;8.176;2023-04-24T13:22:51;6.20;;;3.22;;
17441;SDS011;8838;50.144;8.176;2023-04-24T13:25:18;5.85;;;3.22;;
17441;SDS011;8838;50.144;8.176;2023-04-24T13:27:46;7.75;;;3.30;;
17441;SDS011;8838;50.144;8.176;2023-04-24T13:30:13;6.95;;;3.30;;
17441;SDS011;8838;50.144;8.176;2023-04-24T13:32:41;5.88;;;3.10;;
17441;SDS011;8838;50.144;8.176;2023-04-24T13:35:08;5.90;;;3.47;;
17441;SDS011;8838;50.144;8.176;2023-04-24T13:37:35;8.30;;;3.58;;
17441;SDS011;8838;50.144;8.176;2023-04-24T13:40:02;13.95;;;8.73;;
17441;SDS011;8838;50.144;8.176;2023-04-24T13:42:32;6.15;;;3.60;;
17441;SDS011;8838;50.144;8.176;2023-04-24T13:44:59;6.20;;;4.07;;
17441;SDS011;8838;50.144;8.176;2023-04-24T13:47:26;5.80;;;3.90;;
17441;SDS011;8838;50.144;8.176;2023-04-24T13:49:54;6.57;;;3.70;;
17441;SDS011;8838;50.144;8.176;2023-04-24T13:52:21;9.00;;;3.90;;
17441;SDS011;8838;50.144;8.176;2023-04-24T13:54:47;6.55;;;3.40;;
17441;SDS011;8838;50.144;8.176;2023-04-24T13:57:14;5.07;;;3.22;;
17441;SDS011;8838;50.144;8.176;2023-04-24T13:59:41;4.55;;;3.05;;
17441;SDS011;8838;50.144;8.176;2023-04-24T14:02:08;6.68;;;3.33;;
17441;SDS011;8838;50.144;8.176;2023-04-24T14:04:36;6.07;;;3.30;;
17441;SDS011;8838;50.144;8.176;2023-04-24T14:07:04;4.18;;;3.05;;
17441;SDS011;8838;50.144;8.176;2023-04-24T14:09:33;5.38;;;3.30;;
17441;SDS011;8838;50.144;8.176;2023-04-24T14:11:59;8.10;;;3.10;;
17441;SDS011;8838;50.144;8.176;2023-04-24T14:14:28;6.05;;;3.13;;
17441;SDS011;8838;50.144;8.176;2023-04-24T14:16:55;5.32;;;3.10;;
17441;SDS011;8838;50.144;8.176;2023-04-24T14:19:23;6.43;;;2.97;;
17441;SDS011;8838;50.144;8.176;2023-04-24T14:21:50;4.60;;;2.85;;
17441;SDS011;8838;50.144;8.176;2023-04-24T14:24:18;7.45;;;3.22;;
17441;SDS011;8838;50.144;8.176;2023-04-24T14:26:45;6.22;;;3.50;;
17441;SDS011;8838;50.144;8.176;2023-04-24T14:29:12;4.03;;;3.10;;
17441;SDS011;8838;50.144;8.176;2023-04-24T14:31:39;5.88;;;3.00;;
17441;SDS011;8838;50.144;8.176;2023-04-24T14:34:05;5.55;;;2.83;;
17441;SDS011;8838;50.144;8.176;2023-04-24T14:36:32;7.72;;;3.10;;
17441;SDS011;8838;50.144;8.176;2023-04-24T14:39:00;4.88;;;2.90;;
17441;SDS011;8838;50.144;8.176;2023-04-24T14:41:32;6.18;;;2.95;;
17441;SDS011;8838;50.144;8.176;2023-04-24T14:44:00;4.88;;;3.35;;
17441;SDS011;8838;50.144;8.176;2023-04-24T14:46:27;5.75;;;2.90;;
17441;SDS011;8838;50.144;8.176;2023-04-24T14:48:55;4.93;;;3.10;;
17441;SDS011;8838;50.144;8.176;2023-04-24T14:51:22;5.65;;;3.20;;
17441;SDS011;8838;50.144;8.176;2023-04-24T14:53:48;4.85;;;3.10;;
17441;SDS011;8838;50.144;8.176;2023-04-24T14:56:15;3.58;;;2.60;;
17441;SDS011;8838;50.144;8.176;2023-04-24T14:58:44;5.95;;;2.72;;
17441;SDS011;8838;50.144;8.176;2023-04-24T15:01:11;7.13;;;3.28;;
17441;SDS011;8838;50.144;8.176;2023-04-24T15:03:38;6.13;;;3.05;;
17441;SDS011;8838;50.144;8.176;2023-04-24T15:06:05;5.55;;;2.97;;
17441;SDS011;8838;50.144;8.176;2023-04-24T15:08:32;6.10;;;3.47;;
17441;SDS011;8838;50.144;8.176;2023-04-24T15:10:59;8.55;;;5.68;;